sensor_id;sensor_type;location;lat;lon;timestamp;P1;durP1;ratioP1;P2;durP2;ratioP2
40951;SDS011;26682;51.660;19.338;2023-03-01T00:02:14;335.40;;;146.02;;
40951;SDS011;26682;51.660;19.338;2023-03-01T00:04:56;343.05;;;148.88;;
40951;SDS011;26682;51.660;19.338;2023-03-01T00:07:38;346.00;;;147.75;;
40951;SDS011;26682;51.660;19.338;2023-03-01T00:10:21;333.73;;;142.98;;
40951;SDS011;26682;51.660;19.338;2023-03-01T00:13:04;347.15;;;145.82;;
40951;SDS011;26682;51.660;19.338;2023-03-01T00:15:46;398.50;;;163.75;;
40951;SDS011;26682;51.660;19.338;2023-03-01T00:18:29;415.15;;;174.27;;
40951;SDS011;26682;51.660;19.338;2023-03-01T00:21:11;413.05;;;182.50;;
40951;SDS011;26682;51.660;19.338;2023-03-01T00:23:54;397.38;;;170.85;;
40951;SDS011;26682;51.660;19.338;2023-03-01T00:26:37;376.38;;;170.32;;
40951;SDS011;26682;51.660;19.338;2023-03-01T00:29:20;378.45;;;159.73;;
40951;SDS011;26682;51.660;19.338;2023-03-01T00:32:03;369.50;;;154.77;;
40951;SDS011;26682;51.660;19.338;2023-03-01T00:34:46;368.63;;;163.77;;
40951;SDS011;26682;51.660;19.338;2023-03-01T00:37:35;368.30;;;157.90;;
40951;SDS011;26682;51.660;19.338;2023-03-01T00:40:18;362.67;;;160.07;;
40951;SDS011;26682;51.660;19.338;2023-03-01T00:43:00;370.73;;;158.48;;
40951;SDS011;26682;51.660;19.338;2023-03-01T00:45:43;372.13;;;164.90;;
40951;SDS011;26682;51.660;19.338;2023-03-01T00:48:26;374.55;;;161.57;;
40951;SDS011;26682;51.660;19.338;2023-03-01T00:51:28;350.85;;;153.35;;
40951;SDS011;26682;51.660;19.338;2023-03-01T00:54:10;357.83;;;161.80;;
40951;SDS011;26682;51.660;19.338;2023-03-01T00:56:53;360.33;;;163.02;;
40951;SDS011;26682;51.660;19.338;2023-03-01T00:59:35;376.85;;;163.48;;
40951;SDS011;26682;51.660;19.338;2023-03-01T01:02:18;377.08;;;163.70;;
40951;SDS011;26682;51.660;19.338;2023-03-01T01:05:01;371.38;;;165.65;;
40951;SDS011;26682;51.660;19.338;2023-03-01T01:07:44;387.23;;;160.45;;
40951;SDS011;26682;51.660;19.338;2023-03-01T01:10:26;585.00;;;219.38;;
40951;SDS011;26682;51.660;19.338;2023-03-01T01:13:08;871.03;;;298.70;;
40951;SDS011;26682;51.660;19.338;2023-03-01T01:15:50;717.28;;;249.27;;
40951;SDS011;26682;51.660;19.338;2023-03-01T01:18:33;668.58;;;233.75;;
40951;SDS011;26682;51.660;19.338;2023-03-01T01:21:17;758.53;;;274.08;;
40951;SDS011;26682;51.660;19.338;2023-03-01T01:24:03;658.20;;;253.63;;
40951;SDS011;26682;51.660;19.338;2023-03-01T01:26:46;612.88;;;242.10;;
40951;SDS011;26682;51.660;19.338;2023-03-01T01:29:29;525.83;;;222.07;;
40951;SDS011;26682;51.660;19.338;2023-03-01T01:32:11;426.42;;;181.48;;
40951;SDS011;26682;51.660;19.338;2023-03-01T01:34:54;377.33;;;162.43;;
40951;SDS011;26682;51.660;19.338;2023-03-01T01:37:36;377.85;;;161.18;;
40951;SDS011;26682;51.660;19.338;2023-03-01T01:40:19;359.08;;;154.80;;
40951;SDS011;26682;51.660;19.338;2023-03-01T01:43:01;356.67;;;150.40;;
40951;SDS011;26682;51.660;19.338;2023-03-01T01:45:44;336.98;;;140.70;;
40951;SDS011;26682;51.660;19.338;2023-03-01T01:48:28;328.70;;;140.07;;
40951;SDS011;26682;51.660;19.338;2023-03-01T01:51:23;336.17;;;139.20;;
40951;SDS011;26682;51.660;19.338;2023-03-01T01:54:20;365.08;;;147.95;;
40951;SDS011;26682;51.660;19.338;2023-03-01T01:57:10;356.05;;;142.93;;
40951;SDS011;26682;51.660;19.338;2023-03-01T01:59:57;395.92;;;150.02;;
40951;SDS011;26682;51.660;19.338;2023-03-01T02:02:42;423.30;;;164.30;;
40951;SDS011;26682;51.660;19.338;2023-03-01T02:05:42;435.17;;;164.15;;
40951;SDS011;26682;51.660;19.338;2023-03-01T02:08:36;374.05;;;145.10;;
40951;SDS011;26682;51.660;19.338;2023-03-01T02:11:22;363.10;;;142.27;;
40951;SDS011;26682;51.660;19.338;2023-03-01T02:14:05;340.88;;;140.52;;
40951;SDS011;26682;51.660;19.338;2023-03-01T02:16:48;349.85;;;139.55;;
40951;SDS011;26682;51.660;19.338;2023-03-01T02:22:34;334.35;;;128.93;;
40951;SDS011;26682;51.660;19.338;2023-03-01T02:26:01;317.70;;;129.95;;
40951;SDS011;26682;51.660;19.338;2023-03-01T02:28:38;309.33;;;127.35;;
40951;SDS011;26682;51.660;19.338;2023-03-01T02:31:23;188.37;;;85.87;;
40951;SDS011;26682;51.660;19.338;2023-03-01T02:34:31;240.35;;;109.00;;
40951;SDS011;26682;51.660;19.338;2023-03-01T02:37:14;242.10;;;113.68;;
40951;SDS011;26682;51.660;19.338;2023-03-01T02:40:03;421.85;;;177.15;;
40951;SDS011;26682;51.660;19.338;2023-03-01T02:42:54;340.77;;;140.73;;
40951;SDS011;26682;51.660;19.338;2023-03-01T02:45:43;289.88;;;129.02;;
40951;SDS011;26682;51.660;19.338;2023-03-01T02:48:42;278.10;;;118.03;;
40951;SDS011;26682;51.660;19.338;2023-03-01T02:54:18;254.52;;;111.05;;
40951;SDS011;26682;51.660;19.338;2023-03-01T02:57:21;255.25;;;108.60;;
40951;SDS011;26682;51.660;19.338;2023-03-01T03:00:28;214.77;;;96.50;;
40951;SDS011;26682;51.660;19.338;2023-03-01T03:03:15;183.50;;;84.50;;
40951;SDS011;26682;51.660;19.338;2023-03-01T03:06:01;185.88;;;85.22;;
40951;SDS011;26682;51.660;19.338;2023-03-01T03:08:44;173.10;;;80.70;;
40951;SDS011;26682;51.660;19.338;2023-03-01T03:11:26;203.32;;;93.22;;
40951;SDS011;26682;51.660;19.338;2023-03-01T03:14:10;294.95;;;119.88;;
40951;SDS011;26682;51.660;19.338;2023-03-01T03:16:59;226.00;;;98.32;;
40951;SDS011;26682;51.660;19.338;2023-03-01T03:19:41;167.82;;;75.95;;
40951;SDS011;26682;51.660;19.338;2023-03-01T03:22:27;130.50;;;60.92;;
40951;SDS011;26682;51.660;19.338;2023-03-01T03:25:10;124.07;;;59.15;;
40951;SDS011;26682;51.660;19.338;2023-03-01T03:27:53;132.90;;;61.80;;
40951;SDS011;26682;51.660;19.338;2023-03-01T03:30:40;128.52;;;58.63;;
40951;SDS011;26682;51.660;19.338;2023-03-01T03:33:23;120.07;;;56.65;;
40951;SDS011;26682;51.660;19.338;2023-03-01T03:36:05;120.15;;;55.97;;
40951;SDS011;26682;51.660;19.338;2023-03-01T03:38:48;119.03;;;56.95;;
40951;SDS011;26682;51.660;19.338;2023-03-01T03:41:31;132.48;;;67.25;;
40951;SDS011;26682;51.660;19.338;2023-03-01T03:44:17;129.52;;;64.43;;
40951;SDS011;26682;51.660;19.338;2023-03-01T03:46:59;121.47;;;60.55;;
40951;SDS011;26682;51.660;19.338;2023-03-01T03:49:41;126.25;;;62.05;;
40951;SDS011;26682;51.660;19.338;2023-03-01T03:52:24;127.05;;;60.78;;
40951;SDS011;26682;51.660;19.338;2023-03-01T03:55:08;113.65;;;57.85;;
40951;SDS011;26682;51.660;19.338;2023-03-01T03:57:52;112.03;;;56.78;;
40951;SDS011;26682;51.660;19.338;2023-03-01T04:00:40;128.55;;;60.85;;
40951;SDS011;26682;51.660;19.338;2023-03-01T04:03:24;119.65;;;59.83;;
40951;SDS011;26682;51.660;19.338;2023-03-01T04:06:08;124.28;;;62.35;;
40951;SDS011;26682;51.660;19.338;2023-03-01T04:08:50;136.30;;;64.97;;
40951;SDS011;26682;51.660;19.338;2023-03-01T04:11:33;132.07;;;64.47;;
40951;SDS011;26682;51.660;19.338;2023-03-01T04:14:16;122.07;;;61.17;;
40951;SDS011;26682;51.660;19.338;2023-03-01T04:16:58;121.28;;;60.35;;
40951;SDS011;26682;51.660;19.338;2023-03-01T04:19:41;118.40;;;59.72;;
40951;SDS011;26682;51.660;19.338;2023-03-01T04:22:25;121.07;;;58.97;;
40951;SDS011;26682;51.660;19.338;2023-03-01T04:25:11;125.95;;;60.00;;
40951;SDS011;26682;51.660;19.338;2023-03-01T04:27:55;120.72;;;59.88;;
40951;SDS011;26682;51.660;19.338;2023-03-01T04:30:38;136.10;;;63.00;;
40951;SDS011;26682;51.660;19.338;2023-03-01T04:33:21;128.75;;;59.35;;
40951;SDS011;26682;51.660;19.338;2023-03-01T04:36:04;118.72;;;55.90;;
40951;SDS011;26682;51.660;19.338;2023-03-01T04:38:47;111.38;;;55.30;;
40951;SDS011;26682;51.660;19.338;2023-03-01T04:41:29;114.60;;;57.10;;
40951;SDS011;26682;51.660;19.338;2023-03-01T04:44:12;128.55;;;62.85;;
40951;SDS011;26682;51.660;19.338;2023-03-01T04:46:55;126.63;;;61.88;;
40951;SDS011;26682;51.660;19.338;2023-03-01T04:49:38;125.72;;;62.08;;
40951;SDS011;26682;51.660;19.338;2023-03-01T04:52:20;119.72;;;59.03;;
40951;SDS011;26682;51.660;19.338;2023-03-01T04:55:03;111.28;;;56.88;;
40951;SDS011;26682;51.660;19.338;2023-03-01T04:57:45;106.53;;;51.55;;
40951;SDS011;26682;51.660;19.338;2023-03-01T05:00:28;104.40;;;52.17;;
40951;SDS011;26682;51.660;19.338;2023-03-01T05:03:10;100.93;;;50.70;;
40951;SDS011;26682;51.660;19.338;2023-03-01T05:05:53;103.57;;;51.90;;
40951;SDS011;26682;51.660;19.338;2023-03-01T05:08:36;105.95;;;52.47;;
40951;SDS011;26682;51.660;19.338;2023-03-01T05:11:20;105.78;;;53.45;;
40951;SDS011;26682;51.660;19.338;2023-03-01T05:14:03;108.93;;;57.70;;
40951;SDS011;26682;51.660;19.338;2023-03-01T05:16:50;110.00;;;53.00;;
40951;SDS011;26682;51.660;19.338;2023-03-01T05:19:32;114.63;;;55.80;;
40951;SDS011;26682;51.660;19.338;2023-03-01T05:22:16;109.28;;;53.45;;
40951;SDS011;26682;51.660;19.338;2023-03-01T05:24:58;106.43;;;50.10;;
40951;SDS011;26682;51.660;19.338;2023-03-01T05:27:41;103.22;;;51.63;;
40951;SDS011;26682;51.660;19.338;2023-03-01T05:30:23;92.20;;;49.63;;
40951;SDS011;26682;51.660;19.338;2023-03-01T05:33:06;104.25;;;53.30;;
40951;SDS011;26682;51.660;19.338;2023-03-01T05:35:59;104.97;;;53.40;;
40951;SDS011;26682;51.660;19.338;2023-03-01T05:38:42;107.28;;;53.53;;
40951;SDS011;26682;51.660;19.338;2023-03-01T05:41:25;101.90;;;51.03;;
40951;SDS011;26682;51.660;19.338;2023-03-01T05:44:08;101.32;;;52.42;;
40951;SDS011;26682;51.660;19.338;2023-03-01T05:46:50;111.45;;;53.28;;
40951;SDS011;26682;51.660;19.338;2023-03-01T05:49:33;112.20;;;55.30;;
40951;SDS011;26682;51.660;19.338;2023-03-01T05:52:18;114.35;;;56.90;;
40951;SDS011;26682;51.660;19.338;2023-03-01T05:55:01;111.80;;;54.40;;
40951;SDS011;26682;51.660;19.338;2023-03-01T05:57:44;123.20;;;59.05;;
40951;SDS011;26682;51.660;19.338;2023-03-01T06:00:27;110.05;;;57.88;;
40951;SDS011;26682;51.660;19.338;2023-03-01T06:03:12;120.38;;;60.67;;
40951;SDS011;26682;51.660;19.338;2023-03-01T06:05:56;125.13;;;60.83;;
40951;SDS011;26682;51.660;19.338;2023-03-01T06:08:39;134.23;;;62.70;;
40951;SDS011;26682;51.660;19.338;2023-03-01T06:11:22;132.15;;;60.38;;
40951;SDS011;26682;51.660;19.338;2023-03-01T06:14:05;127.47;;;60.42;;
40951;SDS011;26682;51.660;19.338;2023-03-01T06:16:50;117.28;;;57.55;;
40951;SDS011;26682;51.660;19.338;2023-03-01T06:19:32;139.05;;;65.85;;
40951;SDS011;26682;51.660;19.338;2023-03-01T06:22:14;164.57;;;73.25;;
40951;SDS011;26682;51.660;19.338;2023-03-01T06:24:57;173.57;;;77.18;;
40951;SDS011;26682;51.660;19.338;2023-03-01T06:27:40;186.63;;;75.65;;
40951;SDS011;26682;51.660;19.338;2023-03-01T06:30:23;169.93;;;73.47;;
40951;SDS011;26682;51.660;19.338;2023-03-01T06:33:07;131.48;;;62.25;;
40951;SDS011;26682;51.660;19.338;2023-03-01T06:35:50;135.63;;;64.55;;
40951;SDS011;26682;51.660;19.338;2023-03-01T06:38:36;137.27;;;66.18;;
40951;SDS011;26682;51.660;19.338;2023-03-01T06:41:18;145.45;;;68.80;;
40951;SDS011;26682;51.660;19.338;2023-03-01T06:44:01;123.25;;;60.42;;
40951;SDS011;26682;51.660;19.338;2023-03-01T06:46:44;114.57;;;59.67;;
40951;SDS011;26682;51.660;19.338;2023-03-01T06:49:26;112.50;;;59.92;;
40951;SDS011;26682;51.660;19.338;2023-03-01T06:52:09;112.80;;;60.28;;
40951;SDS011;26682;51.660;19.338;2023-03-01T06:54:51;109.60;;;59.55;;
40951;SDS011;26682;51.660;19.338;2023-03-01T06:57:34;114.05;;;62.75;;
40951;SDS011;26682;51.660;19.338;2023-03-01T07:00:17;128.93;;;73.55;;
40951;SDS011;26682;51.660;19.338;2023-03-01T07:03:00;116.40;;;59.92;;
40951;SDS011;26682;51.660;19.338;2023-03-01T07:05:44;117.90;;;61.63;;
40951;SDS011;26682;51.660;19.338;2023-03-01T07:08:26;140.95;;;68.72;;
40951;SDS011;26682;51.660;19.338;2023-03-01T07:11:09;138.27;;;69.25;;
40951;SDS011;26682;51.660;19.338;2023-03-01T07:13:51;124.03;;;66.22;;
40951;SDS011;26682;51.660;19.338;2023-03-01T07:16:34;132.38;;;69.75;;
40951;SDS011;26682;51.660;19.338;2023-03-01T07:19:17;129.57;;;67.03;;
40951;SDS011;26682;51.660;19.338;2023-03-01T07:21:59;124.68;;;64.53;;
40951;SDS011;26682;51.660;19.338;2023-03-01T07:24:42;124.28;;;66.78;;
40951;SDS011;26682;51.660;19.338;2023-03-01T07:27:25;110.78;;;61.28;;
40951;SDS011;26682;51.660;19.338;2023-03-01T07:30:08;125.40;;;67.78;;
40951;SDS011;26682;51.660;19.338;2023-03-01T07:32:51;114.03;;;60.33;;
40951;SDS011;26682;51.660;19.338;2023-03-01T07:35:36;131.50;;;65.85;;
40951;SDS011;26682;51.660;19.338;2023-03-01T07:38:19;128.00;;;67.60;;
40951;SDS011;26682;51.660;19.338;2023-03-01T07:41:02;122.30;;;64.00;;
40951;SDS011;26682;51.660;19.338;2023-03-01T07:43:45;121.32;;;62.85;;
40951;SDS011;26682;51.660;19.338;2023-03-01T07:46:27;109.45;;;54.78;;
40951;SDS011;26682;51.660;19.338;2023-03-01T07:49:10;99.53;;;50.97;;
40951;SDS011;26682;51.660;19.338;2023-03-01T07:51:53;103.22;;;51.83;;
40951;SDS011;26682;51.660;19.338;2023-03-01T07:54:35;86.15;;;47.42;;
40951;SDS011;26682;51.660;19.338;2023-03-01T07:57:18;100.70;;;54.05;;
40951;SDS011;26682;51.660;19.338;2023-03-01T08:00:00;67.55;;;40.53;;
40951;SDS011;26682;51.660;19.338;2023-03-01T08:02:52;75.50;;;42.05;;
40951;SDS011;26682;51.660;19.338;2023-03-01T08:05:35;82.30;;;43.90;;
40951;SDS011;26682;51.660;19.338;2023-03-01T08:08:17;77.28;;;46.55;;
40951;SDS011;26682;51.660;19.338;2023-03-01T08:11:00;85.70;;;46.25;;
40951;SDS011;26682;51.660;19.338;2023-03-01T08:13:46;74.90;;;42.05;;
40951;SDS011;26682;51.660;19.338;2023-03-01T08:16:33;76.30;;;41.88;;
40951;SDS011;26682;51.660;19.338;2023-03-01T08:19:17;67.22;;;38.50;;
40951;SDS011;26682;51.660;19.338;2023-03-01T08:22:02;66.05;;;36.38;;
40951;SDS011;26682;51.660;19.338;2023-03-01T08:24:46;74.95;;;38.95;;
40951;SDS011;26682;51.660;19.338;2023-03-01T08:27:28;61.17;;;34.40;;
40951;SDS011;26682;51.660;19.338;2023-03-01T08:30:11;92.75;;;39.17;;
40951;SDS011;26682;51.660;19.338;2023-03-01T08:32:54;68.30;;;40.10;;
40951;SDS011;26682;51.660;19.338;2023-03-01T08:35:36;62.33;;;33.58;;
40951;SDS011;26682;51.660;19.338;2023-03-01T08:38:19;92.85;;;33.13;;
40951;SDS011;26682;51.660;19.338;2023-03-01T08:41:02;48.42;;;29.02;;
40951;SDS011;26682;51.660;19.338;2023-03-01T08:43:45;53.17;;;29.17;;
40951;SDS011;26682;51.660;19.338;2023-03-01T08:46:32;34.83;;;22.05;;
40951;SDS011;26682;51.660;19.338;2023-03-01T08:49:19;46.35;;;22.02;;
40951;SDS011;26682;51.660;19.338;2023-03-01T08:52:02;42.85;;;23.13;;
40951;SDS011;26682;51.660;19.338;2023-03-01T08:54:46;44.85;;;23.20;;
40951;SDS011;26682;51.660;19.338;2023-03-01T08:57:29;44.83;;;26.30;;
40951;SDS011;26682;51.660;19.338;2023-03-01T09:00:12;50.20;;;28.48;;
40951;SDS011;26682;51.660;19.338;2023-03-01T09:02:57;45.25;;;24.23;;
40951;SDS011;26682;51.660;19.338;2023-03-01T09:05:40;51.95;;;24.63;;
40951;SDS011;26682;51.660;19.338;2023-03-01T09:08:22;54.72;;;26.17;;
40951;SDS011;26682;51.660;19.338;2023-03-01T09:11:06;62.13;;;29.08;;
40951;SDS011;26682;51.660;19.338;2023-03-01T09:13:49;59.42;;;29.40;;
40951;SDS011;26682;51.660;19.338;2023-03-01T09:16:32;50.13;;;26.10;;
40951;SDS011;26682;51.660;19.338;2023-03-01T09:19:17;49.55;;;27.58;;
40951;SDS011;26682;51.660;19.338;2023-03-01T09:22:00;63.47;;;26.05;;
40951;SDS011;26682;51.660;19.338;2023-03-01T09:24:44;49.40;;;25.75;;
40951;SDS011;26682;51.660;19.338;2023-03-01T09:27:27;64.68;;;28.70;;
40951;SDS011;26682;51.660;19.338;2023-03-01T09:30:09;40.95;;;23.23;;
40951;SDS011;26682;51.660;19.338;2023-03-01T09:32:52;43.38;;;22.52;;
40951;SDS011;26682;51.660;19.338;2023-03-01T09:35:35;50.67;;;25.35;;
40951;SDS011;26682;51.660;19.338;2023-03-01T09:38:17;44.10;;;23.42;;
40951;SDS011;26682;51.660;19.338;2023-03-01T09:41:00;33.17;;;18.75;;
40951;SDS011;26682;51.660;19.338;2023-03-01T09:43:53;47.85;;;23.98;;
40951;SDS011;26682;51.660;19.338;2023-03-01T09:46:42;38.10;;;21.30;;
40951;SDS011;26682;51.660;19.338;2023-03-01T09:49:35;41.53;;;22.63;;
40951;SDS011;26682;51.660;19.338;2023-03-01T09:52:25;50.58;;;21.77;;
40951;SDS011;26682;51.660;19.338;2023-03-01T09:55:17;35.13;;;16.55;;
40951;SDS011;26682;51.660;19.338;2023-03-01T10:07:26;30.17;;;16.15;;
40951;SDS011;26682;51.660;19.338;2023-03-01T10:10:23;30.35;;;16.15;;
40951;SDS011;26682;51.660;19.338;2023-03-01T10:13:15;28.38;;;15.88;;
40951;SDS011;26682;51.660;19.338;2023-03-01T10:16:16;29.45;;;15.82;;
40951;SDS011;26682;51.660;19.338;2023-03-01T10:19:22;27.67;;;15.75;;
40951;SDS011;26682;51.660;19.338;2023-03-01T10:25:11;27.95;;;17.55;;
40951;SDS011;26682;51.660;19.338;2023-03-01T10:27:59;31.90;;;18.35;;
40951;SDS011;26682;51.660;19.338;2023-03-01T10:30:47;30.45;;;16.08;;
40951;SDS011;26682;51.660;19.338;2023-03-01T10:33:31;28.33;;;16.75;;
40951;SDS011;26682;51.660;19.338;2023-03-01T10:36:17;30.67;;;16.20;;
40951;SDS011;26682;51.660;19.338;2023-03-01T10:38:59;30.40;;;15.80;;
40951;SDS011;26682;51.660;19.338;2023-03-01T10:42:00;31.98;;;15.80;;
40951;SDS011;26682;51.660;19.338;2023-03-01T10:44:47;41.38;;;17.73;;
40951;SDS011;26682;51.660;19.338;2023-03-01T10:47:31;31.30;;;16.27;;
40951;SDS011;26682;51.660;19.338;2023-03-01T10:50:20;30.15;;;17.17;;
40951;SDS011;26682;51.660;19.338;2023-03-01T10:53:05;40.20;;;19.23;;
40951;SDS011;26682;51.660;19.338;2023-03-01T10:58:57;29.08;;;17.50;;
40951;SDS011;26682;51.660;19.338;2023-03-01T11:01:45;28.40;;;16.20;;
40951;SDS011;26682;51.660;19.338;2023-03-01T11:04:29;36.03;;;18.00;;
40951;SDS011;26682;51.660;19.338;2023-03-01T11:07:11;29.15;;;15.98;;
40951;SDS011;26682;51.660;19.338;2023-03-01T11:09:55;37.03;;;20.15;;
40951;SDS011;26682;51.660;19.338;2023-03-01T11:12:37;31.63;;;17.63;;
40951;SDS011;26682;51.660;19.338;2023-03-01T11:15:21;45.15;;;21.35;;
40951;SDS011;26682;51.660;19.338;2023-03-01T11:18:17;23.40;;;14.85;;
40951;SDS011;26682;51.660;19.338;2023-03-01T11:21:12;29.27;;;17.10;;
40951;SDS011;26682;51.660;19.338;2023-03-01T11:23:54;35.67;;;17.63;;
40951;SDS011;26682;51.660;19.338;2023-03-01T11:26:39;25.92;;;15.52;;
40951;SDS011;26682;51.660;19.338;2023-03-01T11:29:37;33.22;;;16.33;;
40951;SDS011;26682;51.660;19.338;2023-03-01T11:32:35;34.53;;;17.75;;
40951;SDS011;26682;51.660;19.338;2023-03-01T11:35:26;38.28;;;18.13;;
40951;SDS011;26682;51.660;19.338;2023-03-01T11:41:21;29.92;;;18.63;;
40951;SDS011;26682;51.660;19.338;2023-03-01T11:44:16;38.38;;;21.20;;
40951;SDS011;26682;51.660;19.338;2023-03-01T12:02:55;45.43;;;21.60;;
40951;SDS011;26682;51.660;19.338;2023-03-01T12:06:08;32.83;;;19.83;;
40951;SDS011;26682;51.660;19.338;2023-03-01T12:15:20;33.78;;;17.65;;
40951;SDS011;26682;51.660;19.338;2023-03-01T12:24:47;38.40;;;20.50;;
40951;SDS011;26682;51.660;19.338;2023-03-01T12:27:59;41.70;;;21.38;;
40951;SDS011;26682;51.660;19.338;2023-03-01T12:43:16;34.75;;;18.98;;
40951;SDS011;26682;51.660;19.338;2023-03-01T12:49:13;37.67;;;21.25;;
40951;SDS011;26682;51.660;19.338;2023-03-01T12:52:02;41.75;;;22.10;;
40951;SDS011;26682;51.660;19.338;2023-03-01T12:55:00;34.95;;;20.25;;
40951;SDS011;26682;51.660;19.338;2023-03-01T13:07:11;33.17;;;18.42;;
40951;SDS011;26682;51.660;19.338;2023-03-01T13:13:12;35.55;;;16.73;;
40951;SDS011;26682;51.660;19.338;2023-03-01T13:25:34;36.67;;;19.17;;
40951;SDS011;26682;51.660;19.338;2023-03-01T13:28:39;36.05;;;20.83;;
40951;SDS011;26682;51.660;19.338;2023-03-01T13:37:38;45.42;;;19.05;;
40951;SDS011;26682;51.660;19.338;2023-03-01T13:46:19;34.72;;;18.73;;
40951;SDS011;26682;51.660;19.338;2023-03-01T13:49:03;45.55;;;21.38;;
40951;SDS011;26682;51.660;19.338;2023-03-01T13:51:46;39.75;;;21.13;;
40951;SDS011;26682;51.660;19.338;2023-03-01T13:54:30;47.97;;;26.65;;
40951;SDS011;26682;51.660;19.338;2023-03-01T13:57:18;37.45;;;22.92;;
40951;SDS011;26682;51.660;19.338;2023-03-01T14:00:05;50.03;;;25.65;;
40951;SDS011;26682;51.660;19.338;2023-03-01T14:02:58;47.83;;;26.58;;
40951;SDS011;26682;51.660;19.338;2023-03-01T14:09:05;46.40;;;24.52;;
40951;SDS011;26682;51.660;19.338;2023-03-01T14:18:21;72.38;;;42.33;;
40951;SDS011;26682;51.660;19.338;2023-03-01T14:21:12;42.08;;;22.55;;
40951;SDS011;26682;51.660;19.338;2023-03-01T14:23:56;39.00;;;21.75;;
40951;SDS011;26682;51.660;19.338;2023-03-01T14:26:40;47.80;;;23.23;;
40951;SDS011;26682;51.660;19.338;2023-03-01T14:29:24;42.13;;;25.90;;
40951;SDS011;26682;51.660;19.338;2023-03-01T14:32:19;75.32;;;39.10;;
40951;SDS011;26682;51.660;19.338;2023-03-01T14:35:22;45.58;;;25.35;;
40951;SDS011;26682;51.660;19.338;2023-03-01T14:38:19;69.30;;;37.75;;
40951;SDS011;26682;51.660;19.338;2023-03-01T14:43:58;38.65;;;22.25;;
40951;SDS011;26682;51.660;19.338;2023-03-01T14:49:27;40.95;;;19.67;;
40951;SDS011;26682;51.660;19.338;2023-03-01T14:52:20;37.05;;;21.33;;
40951;SDS011;26682;51.660;19.338;2023-03-01T14:55:06;36.42;;;19.80;;
40951;SDS011;26682;51.660;19.338;2023-03-01T14:57:57;42.63;;;20.80;;
40951;SDS011;26682;51.660;19.338;2023-03-01T15:00:48;45.60;;;22.85;;
40951;SDS011;26682;51.660;19.338;2023-03-01T15:06:28;44.90;;;23.63;;
40951;SDS011;26682;51.660;19.338;2023-03-01T15:09:13;44.92;;;23.30;;
40951;SDS011;26682;51.660;19.338;2023-03-01T15:14:41;42.53;;;21.05;;
40951;SDS011;26682;51.660;19.338;2023-03-01T15:17:36;47.17;;;22.77;;
40951;SDS011;26682;51.660;19.338;2023-03-01T15:20:20;34.50;;;19.80;;
40951;SDS011;26682;51.660;19.338;2023-03-01T15:23:16;48.22;;;23.58;;
40951;SDS011;26682;51.660;19.338;2023-03-01T15:26:21;45.08;;;22.17;;
40951;SDS011;26682;51.660;19.338;2023-03-01T15:29:18;69.85;;;30.23;;
40951;SDS011;26682;51.660;19.338;2023-03-01T15:32:20;45.85;;;22.95;;
40951;SDS011;26682;51.660;19.338;2023-03-01T15:41:47;43.55;;;22.10;;
40951;SDS011;26682;51.660;19.338;2023-03-01T15:44:31;42.17;;;22.67;;
40951;SDS011;26682;51.660;19.338;2023-03-01T15:47:31;40.92;;;22.88;;
40951;SDS011;26682;51.660;19.338;2023-03-01T15:50:25;48.90;;;24.63;;
40951;SDS011;26682;51.660;19.338;2023-03-01T15:53:12;44.97;;;23.80;;
40951;SDS011;26682;51.660;19.338;2023-03-01T15:55:56;55.30;;;28.85;;
40951;SDS011;26682;51.660;19.338;2023-03-01T15:58:39;60.17;;;30.63;;
40951;SDS011;26682;51.660;19.338;2023-03-01T16:01:23;89.97;;;36.45;;
40951;SDS011;26682;51.660;19.338;2023-03-01T16:04:05;48.60;;;27.27;;
40951;SDS011;26682;51.660;19.338;2023-03-01T16:06:51;45.03;;;26.02;;
40951;SDS011;26682;51.660;19.338;2023-03-01T16:09:38;44.65;;;25.67;;
40951;SDS011;26682;51.660;19.338;2023-03-01T16:12:20;59.90;;;27.20;;
40951;SDS011;26682;51.660;19.338;2023-03-01T16:15:03;65.00;;;29.63;;
40951;SDS011;26682;51.660;19.338;2023-03-01T16:17:46;68.70;;;31.45;;
40951;SDS011;26682;51.660;19.338;2023-03-01T16:20:36;62.22;;;31.98;;
40951;SDS011;26682;51.660;19.338;2023-03-01T16:23:19;67.20;;;33.55;;
40951;SDS011;26682;51.660;19.338;2023-03-01T16:26:02;76.22;;;35.83;;
40951;SDS011;26682;51.660;19.338;2023-03-01T16:28:44;83.15;;;39.55;;
40951;SDS011;26682;51.660;19.338;2023-03-01T16:31:28;68.43;;;40.30;;
40951;SDS011;26682;51.660;19.338;2023-03-01T16:34:12;67.22;;;38.38;;
40951;SDS011;26682;51.660;19.338;2023-03-01T16:36:55;69.75;;;37.97;;
40951;SDS011;26682;51.660;19.338;2023-03-01T16:39:37;68.32;;;38.47;;
40951;SDS011;26682;51.660;19.338;2023-03-01T16:42:20;89.78;;;50.15;;
40951;SDS011;26682;51.660;19.338;2023-03-01T16:45:03;92.22;;;50.20;;
40951;SDS011;26682;51.660;19.338;2023-03-01T16:47:55;95.07;;;48.50;;
40951;SDS011;26682;51.660;19.338;2023-03-01T16:50:39;100.13;;;46.50;;
40951;SDS011;26682;51.660;19.338;2023-03-01T16:53:22;98.53;;;50.42;;
40951;SDS011;26682;51.660;19.338;2023-03-01T16:56:05;117.90;;;55.30;;
40951;SDS011;26682;51.660;19.338;2023-03-01T16:58:50;116.57;;;56.72;;
40951;SDS011;26682;51.660;19.338;2023-03-01T17:01:32;133.60;;;66.70;;
40951;SDS011;26682;51.660;19.338;2023-03-01T17:04:21;126.57;;;63.88;;
40951;SDS011;26682;51.660;19.338;2023-03-01T17:07:04;144.80;;;69.15;;
40951;SDS011;26682;51.660;19.338;2023-03-01T17:09:47;167.18;;;75.97;;
40951;SDS011;26682;51.660;19.338;2023-03-01T17:12:29;180.52;;;80.35;;
40951;SDS011;26682;51.660;19.338;2023-03-01T17:15:13;168.57;;;78.20;;
40951;SDS011;26682;51.660;19.338;2023-03-01T17:17:59;176.57;;;77.68;;
40951;SDS011;26682;51.660;19.338;2023-03-01T17:20:43;178.32;;;77.05;;
40951;SDS011;26682;51.660;19.338;2023-03-01T17:23:28;168.73;;;71.75;;
40951;SDS011;26682;51.660;19.338;2023-03-01T17:26:12;143.43;;;68.13;;
40951;SDS011;26682;51.660;19.338;2023-03-01T17:28:55;146.98;;;67.55;;
40951;SDS011;26682;51.660;19.338;2023-03-01T17:31:40;146.00;;;64.57;;
40951;SDS011;26682;51.660;19.338;2023-03-01T17:34:23;147.93;;;63.55;;
40951;SDS011;26682;51.660;19.338;2023-03-01T17:37:06;126.30;;;64.82;;
40951;SDS011;26682;51.660;19.338;2023-03-01T17:39:49;131.43;;;62.88;;
40951;SDS011;26682;51.660;19.338;2023-03-01T17:42:31;125.45;;;62.17;;
40951;SDS011;26682;51.660;19.338;2023-03-01T17:45:14;199.80;;;110.22;;
40951;SDS011;26682;51.660;19.338;2023-03-01T17:47:57;148.30;;;76.25;;
40951;SDS011;26682;51.660;19.338;2023-03-01T17:50:39;147.10;;;72.03;;
40951;SDS011;26682;51.660;19.338;2023-03-01T17:53:22;298.80;;;140.50;;
40951;SDS011;26682;51.660;19.338;2023-03-01T17:56:05;332.13;;;143.68;;